Terminal Aerodrome Forecast
Issued by NWS

Home | Current Version | Previous Version | Text Only | Print | Product List | Glossary On
Versions: 1 2 3 4 5 6 7 8 9 10 11 12 13 14 15 16 17
000
FTUS41 KBTV 221400 AAA
TAFMPV
TAF AMD
KMPV 221444Z 2215/2312 29012G20KT P6SM FEW015 BKN025 OVC035
     FM230300 29010G16KT P6SM OVC040
     FM230600 29006KT P6SM BKN040=

USA.gov is the U.S. government's official web portal to all federal, state and local government web resources and services.